createdAt,value
2022-09-07T00:00:23.403Z,16.77
2022-09-07T00:02:50.135Z,16.75
2022-09-07T00:05:16.918Z,16.62
2022-09-07T00:07:43.571Z,16.57
2022-09-07T00:10:10.339Z,16.39
2022-09-07T00:12:37.097Z,16.35
2022-09-07T00:15:08.293Z,16.44
2022-09-07T00:17:35.604Z,16.40
2022-09-07T00:20:03.900Z,16.37
2022-09-07T00:22:30.915Z,16.44
2022-09-07T00:24:57.636Z,16.42
2022-09-07T00:27:24.395Z,16.45
2022-09-07T00:29:51.066Z,16.44
2022-09-07T00:32:17.736Z,16.45
2022-09-07T00:34:44.545Z,16.45
2022-09-07T00:37:11.211Z,16.43
2022-09-07T00:39:37.933Z,16.36
2022-09-07T00:42:04.960Z,16.34
2022-09-07T00:45:02.129Z,16.35
2022-09-07T00:47:28.893Z,16.25
2022-09-07T00:49:58.775Z,16.21
2022-09-07T00:52:28.288Z,16.20
2022-09-07T00:54:59.241Z,16.23
2022-09-07T00:57:28.216Z,16.13
2022-09-07T00:59:57.534Z,15.98
2022-09-07T01:02:25.950Z,15.96
2022-09-07T01:05:02.918Z,15.92
2022-09-07T01:07:31.195Z,15.86
2022-09-07T01:09:58.203Z,15.88
2022-09-07T01:12:24.953Z,15.93
2022-09-07T01:14:53.002Z,15.94
2022-09-07T01:17:51.819Z,15.91
2022-09-07T01:20:19.541Z,15.91
2022-09-07T01:23:16.625Z,15.92
2022-09-07T01:25:58.644Z,15.78
2022-09-07T01:28:32.436Z,15.84
2022-09-07T01:31:19.523Z,15.77
2022-09-07T01:34:10.028Z,15.85
2022-09-07T01:36:50.568Z,15.81
2022-09-07T01:39:19.452Z,15.72
2022-09-07T01:41:58.833Z,15.61
2022-09-07T01:44:34.906Z,15.69
2022-09-07T01:47:08.362Z,15.73
2022-09-07T01:49:45.247Z,15.55
2022-09-07T01:52:36.646Z,15.58
2022-09-07T01:55:16.430Z,15.60
2022-09-07T01:57:52.547Z,15.68
2022-09-07T02:00:23.162Z,15.68
2022-09-07T02:02:55.640Z,15.57
2022-09-07T02:05:31.672Z,15.65
2022-09-07T02:08:09.652Z,15.64
2022-09-07T02:10:42.804Z,15.66
2022-09-07T02:13:14.140Z,15.60
2022-09-07T02:15:49.279Z,15.62
2022-09-07T02:18:16.065Z,15.62
2022-09-07T02:20:48.985Z,15.58
2022-09-07T02:23:26.047Z,15.45
2022-09-07T02:26:00.918Z,15.38
2022-09-07T02:28:32.875Z,15.24
2022-09-07T02:31:00.908Z,15.17
2022-09-07T02:33:28.654Z,15.26
2022-09-07T02:35:55.741Z,15.35
2022-09-07T02:38:22.953Z,15.41
2022-09-07T02:40:52.364Z,15.46
2022-09-07T02:43:20.846Z,15.43
2022-09-07T02:46:22.677Z,15.43
2022-09-07T02:49:09.187Z,15.28
2022-09-07T02:52:04.777Z,15.38
2022-09-07T02:54:46.694Z,15.44
2022-09-07T02:57:43.883Z,15.47
2022-09-07T03:00:13.431Z,15.38
2022-09-07T03:02:55.470Z,15.21
2022-09-07T03:05:28.765Z,15.14
2022-09-07T03:08:02.635Z,15.14
2022-09-07T03:10:30.200Z,15.18
2022-09-07T03:12:56.965Z,15.16
2022-09-07T03:15:26.182Z,15.24
2022-09-07T03:17:53.686Z,15.24
2022-09-07T03:20:21.780Z,15.15
2022-09-07T03:22:50.655Z,15.09
2022-09-07T03:25:18.843Z,15.09
2022-09-07T03:27:45.488Z,15.11
2022-09-07T03:30:13.340Z,15.11
2022-09-07T03:32:40.327Z,15.05
2022-09-07T03:35:08.163Z,15.18
2022-09-07T03:37:36.895Z,15.20
2022-09-07T03:40:05.785Z,15.04
2022-09-07T03:42:32.644Z,15.00
2022-09-07T03:44:59.264Z,14.98
2022-09-07T03:47:25.962Z,15.02
2022-09-07T03:49:52.731Z,15.00
2022-09-07T03:52:19.406Z,15.01
2022-09-07T03:54:46.370Z,14.83
2022-09-07T03:57:13.434Z,14.73
2022-09-07T03:59:40.087Z,14.70
2022-09-07T04:02:06.915Z,14.72
2022-09-07T04:04:33.996Z,14.68
2022-09-07T04:07:00.721Z,14.63
2022-09-07T04:09:27.460Z,14.65
2022-09-07T04:11:54.131Z,14.76
2022-09-07T04:14:20.872Z,14.73
2022-09-07T04:16:47.674Z,14.59
2022-09-07T04:19:14.892Z,14.59
2022-09-07T04:21:44.306Z,14.67
2022-09-07T04:24:10.953Z,14.60
2022-09-07T04:26:38.033Z,14.73
2022-09-07T04:29:06.106Z,14.73
2022-09-07T04:31:35.499Z,14.79
2022-09-07T04:34:02.737Z,14.67
2022-09-07T04:36:29.625Z,14.79
2022-09-07T04:38:59.506Z,14.69
2022-09-07T04:41:27.187Z,14.82
2022-09-07T04:43:56.159Z,14.86
2022-09-07T04:46:25.311Z,14.90
2022-09-07T04:48:55.079Z,14.94
2022-09-07T04:51:24.225Z,14.99
2022-09-07T04:53:53.289Z,14.96
2022-09-07T04:56:21.280Z,14.78
2022-09-07T04:58:48.405Z,14.77
2022-09-07T05:01:18.138Z,14.86
2022-09-07T05:03:45.634Z,14.88
2022-09-07T05:06:12.767Z,14.93
2022-09-07T05:08:43.623Z,14.98
2022-09-07T05:11:11.575Z,15.05
2022-09-07T05:13:38.342Z,15.06
2022-09-07T05:16:10.442Z,15.08
2022-09-07T05:18:37.823Z,15.07
2022-09-07T05:21:08.602Z,15.06
2022-09-07T05:23:35.823Z,15.08
2022-09-07T05:26:04.705Z,15.00
2022-09-07T05:28:32.278Z,15.06
2022-09-07T05:31:17.453Z,15.07
2022-09-07T05:36:33.803Z,15.18
2022-09-07T05:39:00.446Z,15.24
2022-09-07T05:41:28.099Z,15.26
2022-09-07T05:46:42.064Z,15.37
2022-09-07T05:49:08.902Z,15.40
2022-09-07T05:51:37.085Z,15.46
2022-09-07T05:54:04.248Z,15.50
2022-09-07T05:56:34.431Z,15.55
2022-09-07T05:59:01.087Z,15.63
2022-09-07T06:01:31.769Z,15.71
2022-09-07T06:03:58.843Z,15.76
2022-09-07T06:06:28.808Z,15.81
2022-09-07T06:08:57.617Z,15.94
2022-09-07T06:11:27.028Z,15.97
2022-09-07T06:13:53.711Z,16.06
2022-09-07T06:16:20.891Z,16.16
2022-09-07T06:18:49.543Z,16.18
2022-09-07T06:21:19.807Z,16.25
2022-09-07T06:23:48.395Z,16.32
2022-09-07T06:26:16.632Z,16.38
2022-09-07T06:28:49.150Z,16.45
2022-09-07T06:31:20.494Z,16.56
2022-09-07T06:33:48.240Z,16.66
2022-09-07T06:36:17.567Z,16.74
2022-09-07T06:38:45.183Z,16.83
2022-09-07T06:43:59.410Z,17.06
2022-09-07T06:49:12.839Z,17.24
2022-09-07T06:51:39.528Z,17.28
2022-09-07T06:56:52.876Z,17.25
2022-09-07T06:59:19.473Z,17.33
2022-09-07T07:01:46.188Z,17.40
2022-09-07T07:04:13.344Z,17.56
2022-09-07T07:06:40.294Z,17.57
2022-09-07T07:09:08.925Z,17.67
2022-09-07T07:11:37.227Z,17.66
2022-09-07T07:14:04.426Z,17.62
2022-09-07T07:16:31.174Z,17.62
2022-09-07T07:18:58.031Z,17.68
2022-09-07T07:21:24.892Z,17.74
2022-09-07T07:23:53.137Z,17.79
2022-09-07T07:26:23.725Z,17.87
2022-09-07T07:31:26.995Z,17.89
2022-09-07T07:33:54.332Z,17.90
2022-09-07T07:36:24.264Z,17.93
2022-09-07T07:39:02.074Z,17.98
2022-09-07T07:44:18.751Z,18.13
2022-09-07T07:46:49.168Z,18.21
2022-09-07T07:49:16.070Z,18.18
2022-09-07T07:54:29.510Z,18.42
2022-09-07T07:56:56.135Z,18.55
2022-09-07T07:59:22.876Z,18.61
2022-09-07T08:01:51.930Z,18.65
2022-09-07T08:04:18.792Z,18.67
2022-09-07T08:06:45.422Z,18.81
2022-09-07T08:09:12.098Z,18.80
2022-09-07T08:11:40.274Z,18.80
2022-09-07T08:14:09.828Z,18.88
2022-09-07T08:16:37.719Z,18.98
2022-09-07T08:19:05.678Z,19.03
2022-09-07T08:21:32.277Z,19.17
2022-09-07T08:23:59.902Z,19.33
2022-09-07T08:26:27.284Z,19.44
2022-09-07T08:28:54.016Z,19.59
2022-09-07T08:31:20.885Z,19.57
2022-09-07T08:33:47.447Z,19.62
2022-09-07T08:36:17.786Z,19.68
2022-09-07T08:38:45.021Z,19.84
2022-09-07T08:41:27.492Z,19.96
2022-09-07T08:44:01.026Z,20.04
2022-09-07T08:46:31.383Z,20.17
2022-09-07T08:49:01.119Z,20.35
2022-09-07T08:51:46.440Z,20.26
2022-09-07T08:54:16.726Z,20.25
2022-09-07T08:59:55.449Z,20.22
2022-09-07T09:02:32.616Z,20.25
2022-09-07T09:05:18.872Z,20.25
2022-09-07T09:08:05.622Z,20.40
2022-09-07T09:10:38.098Z,20.55
2022-09-07T09:13:15.929Z,20.54
2022-09-07T09:15:44.636Z,20.55
2022-09-07T09:18:21.934Z,20.61
2022-09-07T09:20:53.471Z,20.92
2022-09-07T09:23:24.699Z,21.02
2022-09-07T09:25:54.175Z,21.41
2022-09-07T09:28:21.362Z,21.59
2022-09-07T09:30:48.343Z,21.76
2022-09-07T09:33:19.724Z,21.90
2022-09-07T09:35:50.041Z,22.13
2022-09-07T09:38:34.810Z,22.21
2022-09-07T09:41:09.872Z,22.20
2022-09-07T09:43:51.763Z,22.13
2022-09-07T09:46:33.531Z,21.94
2022-09-07T09:49:13.907Z,21.86
2022-09-07T09:54:37.271Z,21.88
2022-09-07T09:57:04.050Z,22.00
2022-09-07T10:05:36.286Z,22.21
2022-09-07T10:08:17.663Z,22.18
2022-09-07T10:10:54.396Z,22.31
2022-09-07T10:13:23.483Z,22.12
2022-09-07T10:15:52.200Z,22.21
2022-09-07T10:18:28.007Z,22.23
2022-09-07T10:21:13.131Z,22.31
2022-09-07T10:23:40.374Z,22.41
2022-09-07T10:26:22.460Z,22.56
2022-09-07T10:31:42.472Z,22.55
2022-09-07T10:34:31.029Z,22.49
2022-09-07T10:37:05.534Z,22.78
2022-09-07T10:39:37.157Z,22.81
2022-09-07T10:42:26.344Z,22.80
2022-09-07T10:45:01.180Z,23.25
2022-09-07T10:47:52.319Z,23.16
2022-09-07T10:50:23.154Z,23.18
2022-09-07T10:53:40.116Z,23.39
2022-09-07T10:56:10.455Z,23.35
2022-09-07T10:59:02.343Z,23.52
2022-09-07T11:02:00.170Z,23.53
2022-09-07T11:04:51.466Z,23.65
2022-09-07T11:07:20.216Z,23.60
2022-09-07T11:09:56.302Z,23.71
2022-09-07T11:12:30.862Z,23.40
2022-09-07T11:15:18.703Z,23.41
2022-09-07T11:17:53.290Z,23.39
2022-09-07T11:20:34.183Z,23.53
2022-09-07T11:23:21.566Z,23.60
2022-09-07T11:26:19.182Z,23.74
2022-09-07T11:31:57.569Z,23.57
2022-09-07T11:34:41.088Z,23.76
2022-09-07T11:37:19.976Z,23.79
2022-09-07T11:39:53.682Z,23.88
2022-09-07T11:42:43.495Z,23.92
2022-09-07T11:45:28.770Z,24.12
2022-09-07T11:48:04.018Z,24.22
2022-09-07T11:50:35.419Z,24.53
2022-09-07T11:53:07.767Z,24.48
2022-09-07T11:55:39.544Z,24.37
2022-09-07T11:58:36.590Z,24.42
2022-09-07T12:01:33.665Z,24.41
2022-09-07T12:04:40.164Z,24.39
2022-09-07T12:07:15.128Z,24.46
2022-09-07T12:10:08.248Z,24.51
2022-09-07T12:13:05.445Z,24.64
2022-09-07T12:15:47.637Z,24.88
2022-09-07T12:18:21.761Z,25.06
2022-09-07T12:20:49.016Z,25.17
2022-09-07T12:23:15.578Z,25.04
2022-09-07T12:25:44.368Z,25.14
2022-09-07T12:28:50.791Z,25.28
2022-09-07T12:31:57.599Z,25.42
2022-09-07T12:34:33.614Z,25.34
2022-09-07T12:37:03.688Z,25.38
2022-09-07T12:39:33.036Z,25.54
2022-09-07T12:42:37.826Z,25.51
2022-09-07T12:45:44.269Z,25.43
2022-09-07T12:48:30.768Z,25.45
2022-09-07T12:51:59.367Z,25.62
2022-09-07T12:54:04.252Z,25.51
2022-09-07T12:59:56.435Z,25.41
2022-09-07T13:02:48.874Z,25.48
2022-09-07T13:05:28.744Z,25.78
2022-09-07T13:08:25.973Z,25.90
2022-09-07T13:10:52.731Z,25.85
2022-09-07T13:16:13.907Z,25.94
2022-09-07T13:18:43.762Z,26.08
2022-09-07T13:21:11.886Z,26.22
2022-09-07T13:23:40.340Z,26.28
2022-09-07T13:26:10.905Z,26.27
2022-09-07T13:28:40.481Z,26.38
2022-09-07T13:31:42.490Z,26.22
2022-09-07T13:34:39.584Z,26.30
2022-09-07T13:37:15.007Z,26.40
2022-09-07T13:39:45.809Z,26.39
2022-09-07T13:42:19.619Z,26.41
2022-09-07T13:44:56.298Z,26.48
2022-09-07T13:47:48.487Z,26.34
2022-09-07T13:50:34.269Z,26.30
2022-09-07T13:53:00.754Z,26.27
2022-09-07T13:55:45.597Z,26.10
2022-09-07T13:58:18.021Z,26.25
2022-09-07T14:00:55.478Z,26.08
2022-09-07T14:03:28.151Z,25.94
2022-09-07T14:06:14.667Z,25.95
2022-09-07T14:08:49.534Z,26.01
2022-09-07T14:11:27.673Z,26.01
2022-09-07T14:14:12.647Z,26.05
2022-09-07T14:16:42.532Z,26.09
2022-09-07T14:19:18.315Z,26.01
2022-09-07T14:21:53.162Z,25.93
2022-09-07T14:24:29.538Z,25.95
2022-09-07T14:26:56.574Z,25.92
2022-09-07T14:29:26.672Z,25.84
2022-09-07T14:31:54.394Z,25.80
2022-09-07T14:34:24.752Z,25.84
2022-09-07T14:36:52.457Z,25.95
2022-09-07T14:39:22.280Z,25.94
2022-09-07T14:41:49.910Z,25.98
2022-09-07T14:44:34.067Z,26.04
2022-09-07T14:47:06.091Z,25.92
2022-09-07T14:49:33.329Z,25.88
2022-09-07T14:52:00.797Z,25.85
2022-09-07T14:54:31.702Z,25.84
2022-09-07T14:57:25.722Z,26.03
2022-09-07T14:59:53.813Z,26.00
2022-09-07T15:02:23.398Z,26.14
2022-09-07T15:05:18.944Z,25.96
2022-09-07T15:07:48.413Z,25.85
2022-09-07T15:10:28.939Z,25.77
2022-09-07T15:12:58.476Z,25.67
2022-09-07T15:15:27.622Z,25.62
2022-09-07T15:18:00.825Z,25.52
2022-09-07T15:20:35.295Z,25.49
2022-09-07T15:23:04.815Z,25.37
2022-09-07T15:25:32.870Z,25.37
2022-09-07T15:28:00.256Z,25.46
2022-09-07T15:30:27.423Z,25.46
2022-09-07T15:32:56.881Z,25.39
2022-09-07T15:35:23.923Z,25.31
2022-09-07T15:38:58.914Z,25.29
2022-09-07T15:41:03.847Z,25.35
2022-09-07T15:43:29.770Z,25.13
2022-09-07T15:45:56.477Z,25.07
2022-09-07T15:48:25.334Z,25.02
2022-09-07T15:51:02.522Z,24.92
2022-09-07T15:56:17.287Z,24.94
2022-09-07T15:58:46.586Z,25.12
2022-09-07T16:04:00.541Z,25.09
2022-09-07T16:06:27.279Z,25.01
2022-09-07T16:08:54.700Z,24.97
2022-09-07T16:11:24.276Z,25.01
2022-09-07T16:14:06.344Z,25.00
2022-09-07T16:19:28.031Z,25.04
2022-09-07T16:21:57.469Z,25.10
2022-09-07T16:24:24.389Z,25.19
2022-09-07T16:26:50.990Z,25.11
2022-09-07T16:29:17.903Z,25.05
2022-09-07T16:34:31.390Z,24.81
2022-09-07T16:36:58.084Z,24.74
2022-09-07T16:39:24.691Z,24.69
2022-09-07T16:41:51.383Z,24.56
2022-09-07T16:44:18.964Z,24.55
2022-09-07T16:46:45.498Z,24.60
2022-09-07T16:49:12.650Z,24.59
2022-09-07T16:51:40.133Z,24.60
2022-09-07T16:54:06.924Z,24.57
2022-09-07T16:56:38.313Z,24.54
2022-09-07T16:59:07.092Z,24.46
2022-09-07T17:01:37.987Z,24.32
2022-09-07T17:04:09.802Z,24.25
2022-09-07T17:06:37.268Z,24.23
2022-09-07T17:09:04.327Z,24.23
2022-09-07T17:11:33.343Z,24.20
2022-09-07T17:14:00.362Z,24.20
2022-09-07T17:16:32.081Z,24.17
2022-09-07T17:21:51.823Z,23.96
2022-09-07T17:24:19.715Z,23.88
2022-09-07T17:26:46.604Z,23.80
2022-09-07T17:29:13.512Z,23.71
2022-09-07T17:34:29.036Z,23.52
2022-09-07T17:36:55.735Z,23.46
2022-09-07T17:39:22.348Z,23.41
2022-09-07T17:41:52.666Z,23.35
2022-09-07T17:44:20.095Z,23.19
2022-09-07T17:46:46.699Z,23.16
2022-09-07T17:49:16.366Z,23.13
2022-09-07T17:51:44.247Z,23.04
2022-09-07T17:54:14.430Z,22.99
2022-09-07T17:56:41.804Z,22.95
2022-09-07T18:01:56.192Z,22.80
2022-09-07T18:04:26.261Z,22.75
2022-09-07T18:06:54.185Z,22.72
2022-09-07T18:09:24.252Z,22.64
2022-09-07T18:11:51.184Z,22.58
2022-09-07T18:14:19.006Z,22.51
2022-09-07T18:16:47.914Z,22.47
2022-09-07T18:19:15.827Z,22.41
2022-09-07T18:21:43.657Z,22.38
2022-09-07T18:24:16.929Z,22.31
2022-09-07T18:26:49.672Z,22.24
2022-09-07T18:29:28.786Z,22.19
2022-09-07T18:31:56.790Z,22.12
2022-09-07T18:34:24.040Z,22.09
2022-09-07T18:36:50.721Z,22.09
2022-09-07T18:39:17.684Z,22.03
2022-09-07T18:41:44.354Z,21.98
2022-09-07T18:47:00.663Z,21.88
2022-09-07T18:49:27.476Z,21.83
2022-09-07T18:54:41.924Z,21.80
2022-09-07T18:57:08.771Z,21.78
2022-09-07T18:59:35.615Z,21.78
2022-09-07T19:02:05.030Z,21.74
2022-09-07T19:07:21.545Z,21.68
2022-09-07T19:09:49.759Z,21.61
2022-09-07T19:12:16.419Z,21.54
2022-09-07T19:14:43.064Z,21.48
2022-09-07T19:17:11.841Z,21.43
2022-09-07T19:19:39.998Z,21.42
2022-09-07T19:22:06.574Z,21.35
2022-09-07T19:24:33.410Z,21.29
2022-09-07T19:27:01.131Z,21.21
2022-09-07T19:29:28.173Z,21.20
2022-09-07T19:32:11.304Z,21.16
2022-09-07T19:34:40.892Z,21.11
2022-09-07T19:37:10.134Z,21.06
2022-09-07T19:39:37.186Z,21.04
2022-09-07T19:42:05.315Z,21.00
2022-09-07T19:44:32.935Z,20.98
2022-09-07T19:47:00.448Z,20.94
2022-09-07T19:49:27.748Z,20.87
2022-09-07T19:51:54.663Z,20.85
2022-09-07T19:54:21.443Z,20.82
2022-09-07T19:56:48.291Z,20.79
2022-09-07T19:59:14.999Z,20.85
2022-09-07T20:01:46.055Z,20.85
2022-09-07T20:04:19.642Z,20.84
2022-09-07T20:06:49.791Z,20.82
2022-09-07T20:09:18.690Z,20.78
2022-09-07T20:11:47.502Z,20.74
2022-09-07T20:14:16.251Z,20.72
2022-09-07T20:16:43.793Z,20.67
2022-09-07T20:19:12.056Z,20.62
2022-09-07T20:21:38.627Z,20.59
2022-09-07T20:24:05.774Z,20.60
2022-09-07T20:26:32.741Z,20.62
2022-09-07T20:29:23.369Z,20.60
2022-09-07T20:31:47.239Z,20.58
2022-09-07T20:34:14.381Z,20.57
2022-09-07T20:36:41.260Z,20.55
2022-09-07T20:39:07.887Z,20.56
2022-09-07T20:41:34.725Z,20.52
2022-09-07T20:44:03.559Z,20.48
2022-09-07T20:46:31.224Z,20.42
2022-09-07T20:48:58.566Z,20.38
2022-09-07T20:51:25.818Z,20.35
2022-09-07T20:53:52.931Z,20.31
2022-09-07T20:56:22.342Z,20.25
2022-09-07T20:58:53.603Z,20.23
2022-09-07T21:01:21.269Z,20.18
2022-09-07T21:03:51.741Z,20.15
2022-09-07T21:06:19.409Z,20.19
2022-09-07T21:08:47.227Z,20.16
2022-09-07T21:11:19.921Z,20.13
2022-09-07T21:13:47.052Z,20.10
2022-09-07T21:16:16.457Z,20.06
2022-09-07T21:18:44.461Z,20.04
2022-09-07T21:21:20.361Z,19.99
2022-09-07T21:23:48.061Z,19.92
2022-09-07T21:26:15.216Z,19.87
2022-09-07T21:28:42.348Z,19.85
2022-09-07T21:31:09.556Z,19.81
2022-09-07T21:33:37.685Z,19.80
2022-09-07T21:36:08.085Z,19.78
2022-09-07T21:38:36.734Z,19.75
2022-09-07T21:41:13.866Z,19.71
2022-09-07T21:43:41.208Z,19.65
2022-09-07T21:46:12.367Z,19.60
2022-09-07T21:48:39.300Z,19.56
2022-09-07T21:51:06.754Z,19.57
2022-09-07T21:53:34.141Z,19.54
2022-09-07T21:56:05.097Z,19.53
2022-09-07T21:58:32.682Z,19.46
2022-09-07T22:01:08.253Z,19.43
2022-09-07T22:03:35.058Z,19.37
2022-09-07T22:06:05.117Z,19.16
2022-09-07T22:08:31.731Z,19.15
2022-09-07T22:11:18.481Z,19.13
2022-09-07T22:13:45.755Z,19.12
2022-09-07T22:16:13.347Z,19.13
2022-09-07T22:18:43.795Z,19.14
2022-09-07T22:21:13.455Z,19.03
2022-09-07T22:23:45.174Z,19.03
2022-09-07T22:26:13.647Z,18.92
2022-09-07T22:28:40.898Z,18.83
2022-09-07T22:31:10.331Z,18.81
2022-09-07T22:33:37.446Z,18.74
2022-09-07T22:36:17.448Z,18.74
2022-09-07T22:38:46.025Z,18.75
2022-09-07T22:41:15.554Z,18.76
2022-09-07T22:43:42.885Z,18.76
2022-09-07T22:46:10.459Z,18.77
2022-09-07T22:48:37.766Z,18.77
2022-09-07T22:51:05.318Z,18.55
2022-09-07T22:53:35.680Z,18.43
2022-09-07T22:56:08.191Z,18.45
2022-09-07T22:58:35.176Z,18.47
2022-09-07T23:01:02.061Z,18.49
2022-09-07T23:03:29.611Z,18.50
2022-09-07T23:05:57.084Z,18.51
2022-09-07T23:08:25.327Z,18.52
2022-09-07T23:10:52.966Z,18.36
2022-09-07T23:13:20.152Z,18.14
2022-09-07T23:15:47.556Z,18.13
2022-09-07T23:18:15.112Z,18.08
2022-09-07T23:20:42.119Z,18.12
2022-09-07T23:23:09.224Z,18.13
2022-09-07T23:25:38.283Z,18.19
2022-09-07T23:28:06.278Z,18.21
2022-09-07T23:30:35.466Z,18.16
2022-09-07T23:33:02.998Z,18.10
2022-09-07T23:35:30.138Z,17.99
2022-09-07T23:37:57.068Z,18.07
2022-09-07T23:40:24.121Z,18.06
2022-09-07T23:42:50.746Z,18.06
2022-09-07T23:45:17.494Z,18.05
2022-09-07T23:47:44.064Z,17.91
2022-09-07T23:50:11.116Z,17.90
2022-09-07T23:52:37.970Z,17.87
2022-09-07T23:55:05.403Z,17.92
2022-09-07T23:57:34.351Z,17.82
